La Porte, TX (77571)

10:07 AM CST on March 01, 2015 (GMT -0600)
Fairmont Park | Change Station
CLOSE
Current Station
Personal Weather Station
Location: La Porte, TX
Elevation: 33 ft
Nearby Weather Stations

Elev 33 ft 29.65 °N, 95.07 °W | Updated 11 minutes ago

Overcast
Overcast
61.2 °F
Feels Like 61.2 °F
N
0.0
Wind Variable Wind from NNE

Today
High -- | Low -- °F
--% Chance of Precip.
Yesterday
High -- | Low -- °F
Precip. -- in
6:46 AM 6:19 PM
Waxing Gibbous, 86% visible
Pressure 30.23 in
Visibility 1.0 miles
Clouds Overcast 500 ft
Dew Point 61 °F
Humidity 99%
Rainfall 0.47 in
Snow Depth Not available.
UV 1 out of 12
Pollen 6.40 out of 12
Air Quality Not available.
Flu Activity Not available.
METAR KEFD 011550Z 05004KT 1SM DZ BR OVC005 16/16 A3023

More Conditions Fewer Conditions

Pressure 30.23 in
Visibility 1.0 miles
Clouds Overcast 500 ft
Dew Point 61 °F
Humidity 99%
Rainfall 0.47 in
Snow Depth Not available.
UV 1 out of 12
Pollen 6.40 out of 12
Air Quality Not available.
Flu Activity Not available.
METAR KEFD 011550Z 05004KT 1SM DZ BR OVC005 16/16 A3023

More Conditions Fewer Conditions

10-Day Weather Forecast

Almanac

Astronomy

Mar. 01, 2015 Rise Set
Actual Time
Civil Twilight
Nautical Twilight
Astronomical Twilight
Moon
Length of Visible Light
Length of Day
Tomorrow will be .
, % of the Moon is Illuminated

Today's Extremes

State Highs State Lows

Community

WunderPhotos

Upload Photos

1,801,440 photos uploaded!

WunderBlogs® & News

Nearby

Air Quality

  Air Quality AQ Index Pollutant
Not available.

Snow Depth

Station Depth Elevation

Earthquake Activity

City Distance Mag. Time & Date
Minimum magnitude displayed is 2.5.

Coastal Water Temperatures

Place Temperature

Nearby Weather Stations